Time;durP1;ratioP1;P1;durP2;ratioP2;P2;SDS_P1;SDS_P2;PMS_P1;PMS_P2;Temp;Humidity;BMP_temperature;BMP_pressure;BME280_temperature;BME280_humidity;BME280_pressure;Samples;Min_cycle;Max_cycle;Signal;HPM_P1;HPM_P2
2024/02/24 00:00:46;;;;;;;5.75;3.00;;;5.80;99.90;;;;;;5050739;28;20083;-73
2024/02/24 00:03:12;;;;;;;5.18;2.78;;;5.80;99.90;;;;;;5050039;28;20136;-74
2024/02/24 00:05:37;;;;;;;8.15;3.40;;;5.80;99.90;;;;;;5048437;28;20044;-73
2024/02/24 00:08:03;;;;;;;5.88;2.47;;;5.80;99.90;;;;;;5048702;28;20033;-73
2024/02/24 00:10:29;;;;;;;5.60;2.78;;;5.80;99.90;;;;;;5068672;28;20048;-74
2024/02/24 00:12:55;;;;;;;4.75;3.03;;;5.80;99.90;;;;;;5058048;28;20505;-73
2024/02/24 00:15:21;;;;;;;6.55;2.95;;;5.80;99.90;;;;;;5050979;28;20378;-73
2024/02/24 00:17:46;;;;;;;4.95;3.20;;;5.80;99.90;;;;;;5063329;28;20032;-73
2024/02/24 00:20:12;;;;;;;7.00;2.95;;;5.70;99.90;;;;;;5065320;28;20047;-73
2024/02/24 00:22:38;;;;;;;6.55;3.05;;;5.80;99.90;;;;;;5062708;28;20856;-73
2024/02/24 00:25:04;;;;;;;4.70;2.42;;;5.70;99.90;;;;;;5067065;28;20054;-73
2024/02/24 00:27:30;;;;;;;5.00;2.70;;;5.70;99.90;;;;;;5058494;28;20044;-73
2024/02/24 00:29:56;;;;;;;3.85;2.65;;;5.70;99.90;;;;;;5076285;28;20594;-73
2024/02/24 00:32:22;;;;;;;5.43;3.13;;;5.70;99.90;;;;;;5052564;28;20040;-73
2024/02/24 00:34:47;;;;;;;5.43;3.10;;;5.60;99.90;;;;;;5065334;28;20043;-74
2024/02/24 00:37:13;;;;;;;4.70;2.90;;;5.60;99.90;;;;;;5067112;28;20063;-74
2024/02/24 00:39:39;;;;;;;4.38;2.95;;;5.60;99.90;;;;;;5050011;28;20040;-74
2024/02/24 00:42:08;;;;;;;7.03;3.90;;;5.50;99.90;;;;;;5049797;28;20265;-74
2024/02/24 00:44:34;;;;;;;5.40;3.25;;;5.60;99.90;;;;;;5075158;28;20118;-73
2024/02/24 00:47:00;;;;;;;5.07;3.30;;;5.60;99.90;;;;;;5049525;28;20456;-75
2024/02/24 00:49:25;;;;;;;5.95;3.50;;;5.50;99.90;;;;;;5079545;28;20039;-73
2024/02/24 00:51:51;;;;;;;5.32;3.35;;;5.50;99.90;;;;;;5057340;28;20983;-73
2024/02/24 00:54:17;;;;;;;6.65;3.65;;;5.50;99.90;;;;;;5066246;28;20388;-74
2024/02/24 00:56:43;;;;;;;5.93;3.85;;;5.50;99.90;;;;;;5063264;28;20174;-73
2024/02/24 00:59:12;;;;;;;6.80;3.97;;;5.60;99.90;;;;;;5052507;28;20055;-73
2024/02/24 01:01:37;;;;;;;7.35;3.80;;;5.50;99.90;;;;;;5046941;28;20155;-73
2024/02/24 01:04:03;;;;;;;5.50;4.00;;;5.60;99.90;;;;;;5052370;28;20080;-73
2024/02/24 01:06:29;;;;;;;6.30;4.22;;;5.50;99.90;;;;;;5061486;28;20583;-73
2024/02/24 01:08:55;;;;;;;6.35;3.35;;;5.50;99.90;;;;;;5062396;28;20052;-73
2024/02/24 01:11:20;;;;;;;5.32;3.92;;;5.40;99.90;;;;;;5063801;28;20071;-73
2024/02/24 01:13:46;;;;;;;4.57;3.63;;;5.40;99.90;;;;;;5050607;28;20040;-74
2024/02/24 01:16:12;;;;;;;5.47;3.70;;;5.40;99.90;;;;;;5052486;28;20040;-73
2024/02/24 01:18:38;;;;;;;7.18;3.92;;;5.30;99.90;;;;;;5067744;28;20044;-73
2024/02/24 01:21:04;;;;;;;5.30;4.05;;;5.30;99.90;;;;;;5057921;28;20032;-73
2024/02/24 01:23:30;;;;;;;5.82;4.03;;;5.30;99.90;;;;;;5070632;28;20040;-74
2024/02/24 01:25:56;;;;;;;5.10;3.92;;;5.20;99.90;;;;;;5058739;28;20047;-74
2024/02/24 01:28:22;;;;;;;5.82;3.90;;;5.20;99.90;;;;;;5076195;28;20043;-73
2024/02/24 01:30:48;;;;;;;8.48;4.28;;;5.30;99.90;;;;;;5071870;28;20052;-74
2024/02/24 01:33:13;;;;;;;6.18;3.83;;;5.30;99.90;;;;;;5049188;28;20044;-74
2024/02/24 01:35:39;;;;;;;5.22;4.10;;;5.20;99.90;;;;;;5048237;28;20059;-74
2024/02/24 01:38:05;;;;;;;5.85;3.95;;;5.20;99.90;;;;;;5067220;28;20504;-74
2024/02/24 01:40:35;;;;;;;5.03;4.03;;;5.20;99.90;;;;;;5048189;28;20048;-74
2024/02/24 01:43:00;;;;;;;6.10;4.05;;;5.20;99.90;;;;;;5054374;28;20211;-73
2024/02/24 01:45:26;;;;;;;6.10;3.88;;;5.10;99.90;;;;;;5053075;28;20412;-73
2024/02/24 01:47:56;;;;;;;7.65;4.63;;;5.10;99.90;;;;;;5048907;28;20059;-73
2024/02/24 01:50:24;;;;;;;5.63;4.07;;;5.10;99.90;;;;;;5048636;28;20048;-73
2024/02/24 01:52:50;;;;;;;6.55;4.35;;;5.10;99.90;;;;;;5058899;28;20043;-74
2024/02/24 01:55:17;;;;;;;4.60;3.80;;;5.10;99.90;;;;;;5053364;28;20405;-74
2024/02/24 01:57:44;;;;;;;7.20;4.40;;;5.10;99.90;;;;;;5061082;28;20060;-74
2024/02/24 02:00:11;;;;;;;4.70;3.80;;;5.10;99.90;;;;;;5046067;28;20040;-75
2024/02/24 02:02:40;;;;;;;5.85;3.83;;;5.10;99.90;;;;;;5061769;28;20797;-74
2024/02/24 02:05:09;;;;;;;6.32;4.03;;;5.10;99.90;;;;;;5046759;28;20056;-74
2024/02/24 02:07:38;;;;;;;4.65;3.70;;;5.10;99.90;;;;;;5050929;28;20085;-74
2024/02/24 02:10:05;;;;;;;6.25;4.10;;;5.10;99.90;;;;;;5055834;28;20352;-74
2024/02/24 02:12:35;;;;;;;5.55;3.50;;;5.10;99.90;;;;;;5016180;28;20141;-74
2024/02/24 02:15:03;;;;;;;5.93;3.88;;;5.10;99.90;;;;;;5003655;28;20088;-74
2024/02/24 02:17:30;;;;;;;6.88;3.78;;;5.10;99.90;;;;;;5007098;28;20057;-74
2024/02/24 02:20:03;;;;;;;6.15;3.92;;;5.00;99.90;;;;;;5005503;28;20436;-74
2024/02/24 02:22:30;;;;;;;4.97;3.30;;;5.00;99.90;;;;;;5006471;28;20045;-75
2024/02/24 02:24:56;;;;;;;6.10;3.60;;;5.00;99.90;;;;;;5004593;28;20052;-74
2024/02/24 02:27:22;;;;;;;6.30;4.00;;;5.00;99.90;;;;;;4976088;28;20061;-75
2024/02/24 02:29:48;;;;;;;5.68;3.80;;;5.00;99.90;;;;;;4996970;28;20120;-74
2024/02/24 02:32:14;;;;;;;5.97;4.20;;;4.90;99.90;;;;;;5003146;28;20077;-74
2024/02/24 02:34:39;;;;;;;6.82;3.67;;;4.90;99.90;;;;;;5012053;28;20528;-73
2024/02/24 02:37:05;;;;;;;8.20;4.53;;;4.80;99.90;;;;;;5002241;28;20050;-74
2024/02/24 02:39:32;;;;;;;5.15;3.88;;;5.00;99.90;;;;;;5002459;28;20049;-75
2024/02/24 02:41:58;;;;;;;6.63;4.13;;;4.80;99.90;;;;;;5003860;28;20507;-73
2024/02/24 02:44:24;;;;;;;5.25;3.58;;;4.90;99.90;;;;;;5042298;28;20037;-73
2024/02/24 02:46:50;;;;;;;5.05;3.70;;;4.80;99.90;;;;;;5064947;28;20405;-73
2024/02/24 02:49:16;;;;;;;6.75;4.05;;;4.90;99.90;;;;;;5040430;28;20051;-73
2024/02/24 02:51:42;;;;;;;4.28;3.78;;;4.70;99.90;;;;;;5061190;28;20403;-74
2024/02/24 02:54:08;;;;;;;5.60;3.85;;;4.70;99.90;;;;;;5060468;28;20050;-73
2024/02/24 02:56:34;;;;;;;6.07;3.50;;;4.70;99.90;;;;;;5065185;28;20093;-73
2024/02/24 02:59:00;;;;;;;5.53;3.45;;;4.70;99.90;;;;;;5053725;28;20043;-73
2024/02/24 03:01:25;;;;;;;8.18;3.58;;;4.60;99.90;;;;;;5044707;28;20040;-73
2024/02/24 03:03:51;;;;;;;6.93;4.10;;;4.60;99.90;;;;;;5045452;28;20139;-73
2024/02/24 03:06:18;;;;;;;5.22;3.80;;;4.60;99.90;;;;;;5067000;28;20552;-73
2024/02/24 03:08:44;;;;;;;4.50;3.42;;;4.50;99.90;;;;;;5062502;28;20043;-74
2024/02/24 03:11:17;;;;;;;5.50;4.03;;;4.70;99.90;;;;;;5032033;28;20048;-73
2024/02/24 03:13:44;;;;;;;6.20;3.90;;;4.50;99.90;;;;;;5039510;28;20366;-73
2024/02/24 03:16:09;;;;;;;5.03;3.80;;;4.50;99.90;;;;;;5043898;28;20040;-74
2024/02/24 03:18:35;;;;;;;8.10;3.72;;;4.40;99.90;;;;;;5063473;28;20041;-73
2024/02/24 03:21:01;;;;;;;7.05;3.83;;;4.50;99.90;;;;;;5037744;28;20469;-74
2024/02/24 03:23:27;;;;;;;6.18;4.25;;;4.40;99.90;;;;;;5059434;28;20044;-73
2024/02/24 03:25:53;;;;;;;4.38;3.58;;;4.40;99.90;;;;;;5061732;28;20515;-74
2024/02/24 03:28:19;;;;;;;4.78;3.28;;;4.40;99.90;;;;;;5058975;28;20052;-74
2024/02/24 03:30:44;;;;;;;5.20;3.65;;;4.40;99.90;;;;;;5055315;28;20370;-73
2024/02/24 03:33:12;;;;;;;4.72;3.47;;;4.30;99.90;;;;;;5030572;28;20051;-74
2024/02/24 03:35:38;;;;;;;5.35;3.75;;;4.30;99.90;;;;;;5041394;28;20351;-74
2024/02/24 03:38:04;;;;;;;6.80;3.30;;;4.40;99.90;;;;;;5044979;28;20044;-73
2024/02/24 03:40:30;;;;;;;5.88;3.35;;;4.30;99.90;;;;;;5057733;28;20044;-73
2024/02/24 03:42:55;;;;;;;5.25;3.65;;;4.20;99.90;;;;;;5054409;28;20066;-73
2024/02/24 03:45:21;;;;;;;5.03;3.78;;;4.20;99.90;;;;;;5064005;28;20264;-73
2024/02/24 03:47:47;;;;;;;5.35;3.50;;;4.20;99.90;;;;;;5053693;28;20044;-73
2024/02/24 03:50:13;;;;;;;4.78;3.25;;;4.10;99.90;;;;;;5056943;28;20497;-75
2024/02/24 03:52:39;;;;;;;4.22;3.50;;;4.10;99.90;;;;;;5052277;28;20032;-75
2024/02/24 03:55:05;;;;;;;6.05;3.30;;;4.00;99.90;;;;;;5039273;28;20053;-74
2024/02/24 03:57:31;;;;;;;5.15;3.30;;;4.00;99.90;;;;;;5045817;28;20041;-73
2024/02/24 03:59:59;;;;;;;5.70;4.32;;;4.00;99.90;;;;;;5052152;28;20040;-73
2024/02/24 04:02:25;;;;;;;6.07;3.83;;;4.00;99.90;;;;;;5062669;28;20036;-73
2024/02/24 04:04:52;;;;;;;5.85;3.88;;;3.90;99.90;;;;;;5054060;28;20055;-73
2024/02/24 04:07:17;;;;;;;5.43;3.85;;;3.90;99.90;;;;;;5056832;28;20160;-73
2024/02/24 04:09:43;;;;;;;5.47;3.95;;;3.90;99.90;;;;;;5068408;28;20524;-74
2024/02/24 04:12:09;;;;;;;4.95;3.67;;;3.90;99.90;;;;;;5064004;28;20112;-74
2024/02/24 04:14:35;;;;;;;6.07;3.67;;;3.90;99.90;;;;;;5059340;28;20131;-74
2024/02/24 04:17:04;;;;;;;7.05;3.90;;;3.80;99.90;;;;;;5059395;28;20427;-74
2024/02/24 04:19:30;;;;;;;4.20;3.60;;;3.80;99.90;;;;;;5048223;28;20376;-73
2024/02/24 04:21:56;;;;;;;6.68;3.85;;;3.80;99.90;;;;;;5065774;28;20048;-74
2024/02/24 04:24:21;;;;;;;6.75;4.07;;;3.80;99.90;;;;;;5064273;28;20078;-73
2024/02/24 04:26:47;;;;;;;5.70;4.13;;;3.80;99.90;;;;;;5065618;28;20139;-74
2024/02/24 04:29:13;;;;;;;5.63;3.92;;;3.80;99.90;;;;;;5047968;28;20798;-74
2024/02/24 04:31:38;;;;;;;7.00;4.45;;;3.80;99.90;;;;;;5056891;28;20052;-74
2024/02/24 04:34:07;;;;;;;5.82;3.92;;;3.80;99.90;;;;;;5046345;28;20064;-74
2024/02/24 04:36:33;;;;;;;5.70;3.95;;;3.80;99.90;;;;;;5067073;28;20062;-74
2024/02/24 04:38:58;;;;;;;6.18;4.03;;;3.70;99.90;;;;;;5067422;28;20044;-74
2024/02/24 04:41:25;;;;;;;6.80;4.03;;;3.70;99.90;;;;;;5046895;28;20393;-74
2024/02/24 04:43:50;;;;;;;6.82;4.18;;;3.80;99.90;;;;;;5043538;28;20071;-74
2024/02/24 04:46:16;;;;;;;6.57;4.45;;;3.70;99.90;;;;;;5049030;28;20487;-74
2024/02/24 04:48:42;;;;;;;5.97;3.72;;;3.70;99.90;;;;;;5052913;28;20046;-73
2024/02/24 04:51:09;;;;;;;5.45;3.72;;;3.60;99.90;;;;;;5053129;28;20040;-73
2024/02/24 04:53:34;;;;;;;5.32;4.15;;;3.60;99.90;;;;;;5051130;28;20129;-73
2024/02/24 04:56:00;;;;;;;4.68;3.83;;;3.50;99.90;;;;;;5066346;28;20579;-73
2024/02/24 04:58:27;;;;;;;8.05;4.30;;;3.50;99.90;;;;;;5052981;28;20039;-74
2024/02/24 05:00:52;;;;;;;5.65;4.20;;;3.50;99.90;;;;;;5061885;28;20176;-74
2024/02/24 05:03:18;;;;;;;5.75;4.00;;;3.50;99.90;;;;;;5057448;28;20086;-74
2024/02/24 05:05:44;;;;;;;8.15;4.15;;;3.50;99.90;;;;;;5061150;28;20437;-74
2024/02/24 05:08:10;;;;;;;6.85;4.32;;;3.50;99.90;;;;;;5058393;28;20044;-74
2024/02/24 05:10:35;;;;;;;4.75;3.70;;;3.40;99.90;;;;;;5049790;28;20469;-74
2024/02/24 05:13:01;;;;;;;4.72;3.95;;;3.40;99.90;;;;;;5047716;28;20044;-73
2024/02/24 05:15:27;;;;;;;6.25;4.13;;;3.40;99.90;;;;;;5071322;28;20115;-74
2024/02/24 05:17:53;;;;;;;5.53;4.38;;;3.40;99.90;;;;;;5066969;28;20083;-73
2024/02/24 05:20:18;;;;;;;6.07;4.22;;;3.40;99.90;;;;;;5052568;28;20521;-74
2024/02/24 05:22:44;;;;;;;5.40;4.00;;;3.30;99.90;;;;;;5072327;28;20043;-74
2024/02/24 05:25:10;;;;;;;5.15;3.75;;;3.40;99.90;;;;;;5065018;28;20091;-74
2024/02/24 05:27:36;;;;;;;6.65;4.30;;;3.40;99.90;;;;;;5048690;28;20032;-73
2024/02/24 05:30:03;;;;;;;6.00;3.80;;;3.40;99.90;;;;;;5046375;28;20402;-73
2024/02/24 05:32:29;;;;;;;4.55;3.92;;;3.40;99.90;;;;;;5049774;28;20036;-73
2024/02/24 05:34:55;;;;;;;6.10;4.07;;;3.30;99.90;;;;;;5065709;28;20574;-73
2024/02/24 05:37:22;;;;;;;5.88;4.32;;;3.30;99.90;;;;;;5063145;28;20048;-73
2024/02/24 05:39:49;;;;;;;5.43;4.13;;;3.30;99.90;;;;;;5049242;28;20412;-74
2024/02/24 05:42:16;;;;;;;6.30;4.30;;;3.30;99.90;;;;;;5065077;28;20495;-74
2024/02/24 05:44:42;;;;;;;4.95;4.22;;;3.30;99.90;;;;;;5067720;28;20561;-73
2024/02/24 05:47:08;;;;;;;6.38;4.13;;;3.30;99.90;;;;;;5046306;28;20048;-73
2024/02/24 05:49:34;;;;;;;5.15;4.20;;;3.30;99.90;;;;;;5065618;28;20493;-74
2024/02/24 05:51:59;;;;;;;5.07;4.32;;;3.30;99.90;;;;;;5060071;28;20087;-73
2024/02/24 05:54:25;;;;;;;5.90;4.00;;;3.30;99.90;;;;;;5068221;28;20044;-73
2024/02/24 05:56:51;;;;;;;5.93;4.70;;;3.30;99.90;;;;;;5046133;28;20039;-74
2024/02/24 05:59:17;;;;;;;5.85;4.85;;;3.20;99.90;;;;;;5066987;28;20513;-73
2024/02/24 06:01:43;;;;;;;6.55;4.55;;;3.30;99.90;;;;;;5064880;28;20036;-74
2024/02/24 06:04:08;;;;;;;6.10;4.78;;;3.30;99.90;;;;;;5046288;28;20055;-73
2024/02/24 06:06:34;;;;;;;5.03;4.10;;;3.40;99.90;;;;;;5051354;28;20044;-73
2024/02/24 06:09:00;;;;;;;6.78;5.30;;;3.30;99.90;;;;;;5051194;28;20138;-73
2024/02/24 06:11:26;;;;;;;5.70;4.47;;;3.40;99.90;;;;;;5061404;28;20040;-73
2024/02/24 06:13:52;;;;;;;8.02;4.63;;;3.40;99.90;;;;;;5069968;28;20056;-73
2024/02/24 06:16:21;;;;;;;6.72;4.93;;;3.40;99.90;;;;;;5042488;28;20103;-73
2024/02/24 06:18:47;;;;;;;7.47;5.07;;;3.40;99.90;;;;;;5068442;28;20099;-74
2024/02/24 06:21:12;;;;;;;6.15;5.03;;;3.40;99.90;;;;;;5045857;28;20436;-72
2024/02/24 06:23:38;;;;;;;6.63;5.03;;;3.50;99.90;;;;;;5060681;28;20036;-73
2024/02/24 06:26:04;;;;;;;7.85;5.10;;;3.50;99.90;;;;;;5066769;28;20040;-73
2024/02/24 06:28:30;;;;;;;7.35;5.47;;;3.50;99.90;;;;;;5043592;28;20040;-73
2024/02/24 06:30:57;;;;;;;8.18;5.15;;;3.60;99.90;;;;;;5071807;28;20047;-72
2024/02/24 06:33:23;;;;;;;6.60;5.35;;;3.50;99.90;;;;;;5042369;28;20732;-73
2024/02/24 06:35:49;;;;;;;6.40;5.18;;;3.60;99.90;;;;;;5061368;28;20105;-73
2024/02/24 06:38:14;;;;;;;5.85;5.05;;;3.60;99.90;;;;;;5073703;28;20048;-72
2024/02/24 06:40:40;;;;;;;7.57;5.57;;;3.60;99.90;;;;;;5064936;28;20526;-73
2024/02/24 06:43:06;;;;;;;9.07;5.30;;;3.60;99.90;;;;;;5063240;28;20122;-72
2024/02/24 06:45:32;;;;;;;6.72;5.20;;;3.60;99.90;;;;;;5048432;28;20040;-73
2024/02/24 06:47:58;;;;;;;9.30;5.82;;;3.60;99.90;;;;;;5059673;28;20078;-74
2024/02/24 06:50:24;;;;;;;9.00;5.63;;;3.60;99.90;;;;;;5060873;28;20649;-75
2024/02/24 06:52:49;;;;;;;7.18;5.30;;;3.80;99.90;;;;;;5072116;28;20036;-74
2024/02/24 06:55:15;;;;;;;7.68;5.60;;;3.70;99.90;;;;;;5051493;28;20412;-74
2024/02/24 06:57:44;;;;;;;7.32;5.28;;;3.70;99.90;;;;;;5067541;28;20044;-74
2024/02/24 07:00:11;;;;;;;7.55;5.65;;;3.80;99.90;;;;;;5061650;28;20090;-74
2024/02/24 07:02:38;;;;;;;7.35;5.88;;;3.80;99.90;;;;;;5076164;28;20032;-74
2024/02/24 07:05:11;;;;;;;6.45;5.43;;;3.80;99.90;;;;;;5058219;28;20055;-73
2024/02/24 07:07:37;;;;;;;8.07;5.72;;;3.80;99.90;;;;;;5066934;28;20063;-73
2024/02/24 07:10:06;;;;;;;6.93;5.45;;;3.80;99.90;;;;;;5051461;28;20488;-73
2024/02/24 07:12:32;;;;;;;7.15;5.05;;;3.80;99.90;;;;;;5058529;28;20036;-73
2024/02/24 07:14:58;;;;;;;8.38;6.03;;;3.90;99.90;;;;;;5054623;28;20549;-73
2024/02/24 07:17:28;;;;;;;6.32;5.68;;;3.90;99.90;;;;;;5074514;28;20040;-73
2024/02/24 07:19:54;;;;;;;8.30;5.95;;;4.00;99.90;;;;;;5051543;28;20047;-73
2024/02/24 07:22:21;;;;;;;6.60;5.85;;;4.00;99.90;;;;;;5074415;28;20040;-73
2024/02/24 07:24:47;;;;;;;6.07;5.47;;;4.00;99.90;;;;;;5047851;28;20036;-73
2024/02/24 07:27:12;;;;;;;7.65;5.82;;;4.10;99.90;;;;;;5068888;28;20040;-73
2024/02/24 07:29:38;;;;;;;8.43;6.18;;;4.10;99.90;;;;;;5054735;28;20093;-73
2024/02/24 07:32:04;;;;;;;7.85;6.35;;;4.10;99.90;;;;;;5067098;28;20043;-73
2024/02/24 07:34:30;;;;;;;8.32;5.97;;;4.20;99.90;;;;;;5068651;28;20049;-73
2024/02/24 07:36:57;;;;;;;7.97;6.53;;;4.20;99.90;;;;;;5056763;28;20074;-73
2024/02/24 07:39:23;;;;;;;6.53;5.82;;;4.30;99.90;;;;;;5054933;28;20040;-73
2024/02/24 07:41:49;;;;;;;8.52;6.85;;;4.30;99.90;;;;;;5049678;28;20055;-73
2024/02/24 07:44:14;;;;;;;8.55;6.70;;;4.40;99.90;;;;;;5066646;28;20052;-73
2024/02/24 07:46:40;;;;;;;7.22;6.50;;;4.50;99.90;;;;;;5065032;28;20040;-73
2024/02/24 07:49:07;;;;;;;8.18;6.68;;;4.50;99.90;;;;;;5075371;28;20051;-73
2024/02/24 07:51:33;;;;;;;8.63;6.70;;;4.60;99.90;;;;;;5065994;28;20037;-74
2024/02/24 07:53:59;;;;;;;8.18;6.22;;;4.60;99.90;;;;;;5068231;28;20066;-73
2024/02/24 07:56:25;;;;;;;7.13;6.43;;;4.70;99.90;;;;;;5068387;28;20042;-73
2024/02/24 07:58:54;;;;;;;8.02;6.68;;;4.70;99.90;;;;;;5065679;28;20044;-74
2024/02/24 08:01:20;;;;;;;7.80;6.95;;;4.80;99.90;;;;;;5081544;28;20048;-74
2024/02/24 08:03:46;;;;;;;9.13;7.35;;;4.80;99.90;;;;;;5069755;28;20098;-73
2024/02/24 08:06:11;;;;;;;9.23;6.93;;;4.80;99.90;;;;;;5063542;28;20366;-73
2024/02/24 08:08:37;;;;;;;7.80;6.63;;;4.90;99.90;;;;;;5050629;28;20048;-73
2024/02/24 08:11:04;;;;;;;8.30;6.90;;;4.90;99.90;;;;;;5084050;28;20048;-74
2024/02/24 08:13:31;;;;;;;8.55;7.45;;;5.00;99.90;;;;;;5052283;28;20043;-74
2024/02/24 08:16:04;;;;;;;8.13;6.93;;;5.10;99.90;;;;;;5051043;28;20131;-74
2024/02/24 08:18:30;;;;;;;8.75;6.97;;;5.10;99.90;;;;;;5067010;28;20040;-74
2024/02/24 08:20:57;;;;;;;8.00;7.20;;;5.20;99.90;;;;;;5051838;28;20048;-73
2024/02/24 08:23:22;;;;;;;8.82;7.60;;;5.30;99.90;;;;;;5067813;28;20540;-75
2024/02/24 08:25:48;;;;;;;10.25;7.95;;;5.30;99.90;;;;;;5063507;28;20128;-74
2024/02/24 08:28:14;;;;;;;9.13;7.82;;;5.30;99.90;;;;;;5063974;28;20449;-73
2024/02/24 08:30:40;;;;;;;8.90;7.97;;;5.40;99.90;;;;;;5061739;28;20399;-74
2024/02/24 08:33:06;;;;;;;9.30;8.40;;;5.40;99.90;;;;;;5052416;28;20036;-74
2024/02/24 08:35:32;;;;;;;9.13;8.07;;;5.50;99.90;;;;;;5045796;28;20527;-74
2024/02/24 08:37:58;;;;;;;9.65;8.68;;;5.50;99.90;;;;;;5078772;28;20071;-74
2024/02/24 08:40:24;;;;;;;11.18;8.10;;;5.60;99.90;;;;;;5046187;28;20064;-74
2024/02/24 08:42:49;;;;;;;10.05;8.20;;;5.60;99.90;;;;;;5046624;28;20055;-74
2024/02/24 08:45:15;;;;;;;9.77;8.65;;;5.60;99.90;;;;;;5048378;28;20201;-74
2024/02/24 08:47:41;;;;;;;12.68;8.68;;;5.60;99.90;;;;;;5054120;28;20093;-74
2024/02/24 08:50:07;;;;;;;11.85;8.85;;;5.70;99.90;;;;;;5064102;28;20043;-73
2024/02/24 08:52:33;;;;;;;10.32;9.20;;;5.70;99.90;;;;;;5065557;28;20431;-74
2024/02/24 08:54:59;;;;;;;8.88;7.70;;;5.80;99.90;;;;;;5046921;28;20101;-74
2024/02/24 08:57:25;;;;;;;11.05;9.90;;;5.80;99.90;;;;;;5045559;28;20041;-74
2024/02/24 08:59:50;;;;;;;9.32;8.35;;;5.80;99.90;;;;;;5065440;28;20039;-74
2024/02/24 09:02:16;;;;;;;9.30;8.35;;;5.90;99.90;;;;;;5062341;28;20048;-74
2024/02/24 09:04:42;;;;;;;9.55;8.65;;;5.90;99.90;;;;;;5051650;28;20036;-75
2024/02/24 09:07:08;;;;;;;9.32;8.32;;;5.90;99.90;;;;;;5057213;28;20136;-74
2024/02/24 09:09:34;;;;;;;9.02;8.20;;;5.90;99.90;;;;;;5051699;28;20135;-73
2024/02/24 09:12:00;;;;;;;9.70;8.70;;;5.90;99.90;;;;;;5046990;28;20041;-74
2024/02/24 09:14:25;;;;;;;9.55;8.52;;;6.00;99.90;;;;;;5079088;28;20043;-74
2024/02/24 09:16:55;;;;;;;12.75;10.27;;;6.00;99.90;;;;;;5052405;28;20942;-74
2024/02/24 09:19:22;;;;;;;12.05;10.02;;;6.00;99.90;;;;;;5044608;28;20492;-74
2024/02/24 09:21:47;;;;;;;11.35;10.15;;;6.00;99.90;;;;;;5065531;28;20062;-74
2024/02/24 09:24:13;;;;;;;11.75;10.60;;;6.00;99.90;;;;;;5065802;28;20048;-74
2024/02/24 09:26:39;;;;;;;11.30;10.18;;;6.00;99.90;;;;;;5049734;28;20047;-74
2024/02/24 09:29:05;;;;;;;11.43;10.25;;;6.10;99.90;;;;;;5064776;28;20138;-74
2024/02/24 09:31:34;;;;;;;11.77;10.68;;;6.10;99.90;;;;;;5053850;28;20476;-74
2024/02/24 09:33:59;;;;;;;12.68;10.82;;;6.20;99.90;;;;;;5050976;28;20115;-73
2024/02/24 09:36:25;;;;;;;12.00;10.77;;;6.20;99.90;;;;;;5062093;28;20036;-74
2024/02/24 09:38:51;;;;;;;11.93;10.73;;;6.30;99.90;;;;;;5049031;28;20078;-74
2024/02/24 09:41:18;;;;;;;11.73;10.52;;;6.30;99.90;;;;;;5056043;28;20044;-74
2024/02/24 09:43:44;;;;;;;12.18;10.90;;;6.30;99.90;;;;;;5061824;28;20068;-74
2024/02/24 09:46:10;;;;;;;11.52;10.43;;;6.40;99.90;;;;;;5067044;28;20101;-74
2024/02/24 09:48:38;;;;;;;12.85;11.30;;;6.40;99.90;;;;;;5047665;28;20059;-74
2024/02/24 09:51:04;;;;;;;12.32;11.13;;;6.50;99.90;;;;;;5066089;28;20119;-74
2024/02/24 09:53:30;;;;;;;11.77;10.57;;;6.50;99.90;;;;;;5066698;28;20038;-74
2024/02/24 09:55:57;;;;;;;11.30;10.15;;;6.60;99.90;;;;;;5047221;28;20784;-74
2024/02/24 09:58:23;;;;;;;11.75;10.63;;;6.70;99.90;;;;;;5063955;28;20131;-74
2024/02/24 10:00:52;;;;;;;10.85;9.85;;;6.70;99.90;;;;;;5063670;28;20106;-74
2024/02/24 10:03:21;;;;;;;12.68;10.23;;;6.80;99.90;;;;;;5066893;28;20083;-74
2024/02/24 10:05:51;;;;;;;10.68;9.23;;;6.90;99.90;;;;;;5068374;28;20035;-74
2024/02/24 10:08:17;;;;;;;10.63;9.55;;;6.90;99.90;;;;;;5047933;28;20724;-72
2024/02/24 10:10:44;;;;;;;10.10;9.02;;;6.90;99.90;;;;;;5056280;28;20043;-74
2024/02/24 10:13:10;;;;;;;10.30;9.30;;;6.90;99.90;;;;;;5061517;28;20036;-74
2024/02/24 10:15:36;;;;;;;10.82;9.02;;;6.90;99.90;;;;;;5046478;28;20131;-74
2024/02/24 10:18:03;;;;;;;10.88;9.43;;;7.00;99.90;;;;;;5050624;28;20044;-74
2024/02/24 10:20:29;;;;;;;9.88;8.88;;;7.00;99.90;;;;;;5047471;28;20036;-74
2024/02/24 10:22:57;;;;;;;10.27;9.27;;;7.00;99.90;;;;;;5060307;28;20055;-74
2024/02/24 10:25:23;;;;;;;10.10;9.13;;;7.00;99.90;;;;;;5052747;28;20050;-74
2024/02/24 10:27:49;;;;;;;10.90;9.05;;;7.10;99.90;;;;;;5065118;28;20098;-76
2024/02/24 10:30:15;;;;;;;11.35;8.88;;;7.10;99.90;;;;;;5066286;28;20229;-74
2024/02/24 10:32:41;;;;;;;11.10;9.50;;;7.10;99.90;;;;;;5064070;28;20047;-74
2024/02/24 10:35:11;;;;;;;14.43;9.07;;;7.10;99.90;;;;;;5063727;28;20619;-75
2024/02/24 10:37:37;;;;;;;9.47;8.50;;;7.20;99.90;;;;;;5049533;28;20028;-74
2024/02/24 10:40:05;;;;;;;9.90;9.00;;;7.20;99.90;;;;;;5062051;28;20427;-74
2024/02/24 10:42:34;;;;;;;9.70;8.73;;;7.30;99.90;;;;;;5049504;28;20519;-74
2024/02/24 10:45:06;;;;;;;9.55;8.32;;;7.30;99.90;;;;;;5045553;28;20066;-74
2024/02/24 10:47:35;;;;;;;11.75;8.07;;;7.40;99.90;;;;;;5064727;28;20048;-74
2024/02/24 10:50:10;;;;;;;9.55;8.55;;;7.50;99.90;;;;;;5063187;28;20492;-74
2024/02/24 10:52:37;;;;;;;8.32;7.47;;;7.60;99.90;;;;;;5069129;28;20491;-74
2024/02/24 10:55:04;;;;;;;8.65;7.75;;;7.50;99.90;;;;;;5059221;28;20512;-74
2024/02/24 10:57:32;;;;;;;9.00;7.65;;;7.60;99.90;;;;;;5067044;28;20047;-74
2024/02/24 11:00:02;;;;;;;9.85;7.70;;;7.60;99.90;;;;;;5059085;28;20519;-74
2024/02/24 11:02:29;;;;;;;9.63;7.97;;;7.60;99.90;;;;;;5066062;28;20046;-74
2024/02/24 11:05:00;;;;;;;10.05;8.25;;;7.70;99.90;;;;;;5068409;28;20505;-74
2024/02/24 11:07:32;;;;;;;9.05;8.07;;;7.70;99.90;;;;;;5071611;28;20333;-74
2024/02/24 11:09:57;;;;;;;8.30;7.47;;;7.70;99.90;;;;;;5061781;28;20048;-74
2024/02/24 11:12:27;;;;;;;10.02;8.43;;;7.70;99.90;;;;;;5070967;28;20403;-74
2024/02/24 11:14:54;;;;;;;9.57;8.52;;;7.80;99.90;;;;;;5064414;28;20039;-74
2024/02/24 11:17:51;;;;;;;9.18;8.27;;;7.80;99.90;;;;;;5064796;28;20047;-74
2024/02/24 11:20:38;;;;;;;9.13;8.23;;;7.80;99.90;;;;;;5064736;28;20058;-74
2024/02/24 11:23:24;;;;;;;8.93;7.95;;;7.90;99.90;;;;;;5042795;28;20039;-73
2024/02/24 11:26:10;;;;;;;9.05;8.13;;;8.00;99.90;;;;;;5044287;28;20373;-74
2024/02/24 11:28:40;;;;;;;9.00;7.40;;;8.20;99.90;;;;;;5075213;28;20051;-74
2024/02/24 11:31:07;;;;;;;8.85;7.13;;;8.30;99.90;;;;;;5057067;28;20531;-74
2024/02/24 11:33:38;;;;;;;7.05;6.35;;;8.40;99.90;;;;;;5062351;28;20040;-73
2024/02/24 11:36:05;;;;;;;9.70;7.20;;;8.40;99.90;;;;;;5045972;28;20048;-72
2024/02/24 11:38:34;;;;;;;7.00;6.28;;;8.30;99.90;;;;;;5065763;28;20044;-73
2024/02/24 11:41:04;;;;;;;8.13;6.90;;;8.30;99.90;;;;;;5062264;28;20032;-74
2024/02/24 11:43:30;;;;;;;6.60;5.85;;;8.20;99.90;;;;;;5061333;28;20543;-74
2024/02/24 11:45:56;;;;;;;5.50;4.90;;;8.10;99.90;;;;;;5070878;28;20130;-74
2024/02/24 11:48:22;;;;;;;6.57;5.85;;;8.00;99.90;;;;;;5048088;28;20375;-74
2024/02/24 11:50:49;;;;;;;7.85;6.25;;;8.00;99.90;;;;;;5053690;28;20048;-73
2024/02/24 11:53:16;;;;;;;5.93;5.13;;;8.10;99.90;;;;;;5069792;28;20496;-74
2024/02/24 11:55:46;;;;;;;7.45;5.40;;;8.20;99.90;;;;;;5049226;28;20040;-74
2024/02/24 11:58:17;;;;;;;7.32;5.32;;;8.30;99.90;;;;;;5047392;28;20044;-73
2024/02/24 12:00:43;;;;;;;8.45;5.13;;;8.30;99.90;;;;;;5053662;28;20043;-73
2024/02/24 12:03:13;;;;;;;5.93;4.78;;;8.20;99.90;;;;;;5050306;28;20047;-73
2024/02/24 12:05:39;;;;;;;;;;;8.10;99.90;;;;;;5067037;28;20047;-73
2024/02/24 12:08:07;;;;;;;5.80;3.75;;;8.10;99.90;;;;;;5051011;28;19928;-73
2024/02/24 12:10:37;;;;;;;2.65;2.08;;;8.10;99.90;;;;;;5051542;28;20032;-73
2024/02/24 12:13:10;;;;;;;3.13;1.60;;;8.00;99.90;;;;;;5051459;28;20040;-73
2024/02/24 12:15:38;;;;;;;3.35;2.83;;;7.80;99.90;;;;;;5050137;28;20147;-73
2024/02/24 12:18:10;;;;;;;3.80;2.70;;;7.50;99.90;;;;;;5057005;28;20496;-73
2024/02/24 12:20:41;;;;;;;4.30;2.40;;;7.40;99.90;;;;;;5063699;28;20052;-73
2024/02/24 12:23:08;;;;;;;3.80;2.75;;;7.40;99.90;;;;;;5067305;28;20518;-73
2024/02/24 12:25:35;;;;;;;5.63;2.97;;;7.50;99.90;;;;;;5070076;28;20097;-73
2024/02/24 12:28:04;;;;;;;5.10;3.42;;;7.50;99.90;;;;;;5047128;28;20075;-73
2024/02/24 12:30:48;;;;;;;4.18;3.28;;;7.30;99.90;;;;;;5068338;28;20031;-73
2024/02/24 12:33:16;;;;;;;4.72;3.10;;;7.00;99.90;;;;;;5067705;28;20040;-73
2024/02/24 12:35:42;;;;;;;3.35;2.60;;;6.90;99.90;;;;;;5047379;28;20098;-73
2024/02/24 12:38:16;;;;;;;3.95;2.90;;;6.80;99.90;;;;;;5065904;28;20382;-73
2024/02/24 12:40:44;;;;;;;4.18;3.03;;;6.70;99.90;;;;;;5047970;28;20036;-73
2024/02/24 12:43:11;;;;;;;5.43;3.92;;;6.50;99.90;;;;;;5062285;28;20067;-74
2024/02/24 12:45:37;;;;;;;4.50;3.92;;;6.40;99.90;;;;;;5049112;28;20055;-74
2024/02/24 12:48:05;;;;;;;5.50;4.15;;;6.30;99.90;;;;;;5049651;28;20056;-74
2024/02/24 12:50:31;;;;;;;6.75;4.40;;;6.20;99.90;;;;;;5065401;28;20305;-74
2024/02/24 12:52:57;;;;;;;5.68;4.63;;;6.10;99.90;;;;;;5049750;28;20038;-73